Time;durP1;ratioP1;P1;durP2;ratioP2;P2;SDS_P1;SDS_P2;PMS_P1;PMS_P2;Temp;Humidity;BMP_temperature;BMP_pressure;BME280_temperature;BME280_humidity;BME280_pressure;Samples;Min_cycle;Max_cycle;Signal;HPM_P1;HPM_P2
2021/12/14 00:02:24;;;;;;;8.73;4.63;;;5.20;99.90;;;;;;5076577;28;20039;-86
2021/12/14 00:04:54;;;;;;;12.23;5.30;;;5.20;99.90;;;;;;5076874;28;20072;-87
2021/12/14 00:07:22;;;;;;;9.80;4.20;;;5.20;99.90;;;;;;5067381;28;20040;-86
2021/12/14 00:10:02;;;;;;;11.80;4.67;;;5.20;99.90;;;;;;5056905;28;20033;-86
2021/12/14 00:13:12;;;;;;;13.20;4.50;;;5.20;99.90;;;;;;5073642;28;20509;-87
2021/12/14 00:15:26;;;;;;;13.40;4.53;;;5.10;99.90;;;;;;5070654;28;20032;-86
2021/12/14 00:18:01;;;;;;;9.47;4.33;;;5.10;99.90;;;;;;5076951;28;20072;-87
2021/12/14 00:20:33;;;;;;;13.73;4.20;;;4.90;99.90;;;;;;5076925;28;20024;-86
2021/12/14 00:25:35;;;;;;;11.87;4.13;;;5.10;99.90;;;;;;5094460;28;20069;-86
2021/12/14 00:28:09;;;;;;;48.60;4.50;;;5.10;99.90;;;;;;5076358;28;20111;-86
2021/12/14 00:30:36;;;;;;;14.83;4.20;;;5.00;99.90;;;;;;5075717;28;20122;-86
2021/12/14 00:33:06;;;;;;;13.00;4.93;;;5.00;99.90;;;;;;5076039;28;20031;-87
2021/12/14 00:35:35;;;;;;;11.40;4.20;;;5.00;99.90;;;;;;5076410;28;20024;-86
2021/12/14 00:38:02;;;;;;;9.83;4.00;;;5.00;99.90;;;;;;5076427;28;20429;-87
2021/12/14 00:40:57;;;;;;;10.50;4.27;;;5.00;99.90;;;;;;5076167;28;20020;-87
2021/12/14 00:43:27;;;;;;;7.57;3.73;;;4.90;99.90;;;;;;5076388;28;20016;-86
2021/12/14 00:45:54;;;;;;;12.27;4.53;;;5.00;99.90;;;;;;5075992;28;20044;-87
2021/12/14 00:48:21;;;;;;;10.27;4.13;;;5.00;99.90;;;;;;5075824;28;20028;-85
2021/12/14 00:50:51;;;;;;;15.57;4.27;;;5.00;99.90;;;;;;5075659;28;20091;-87
2021/12/14 00:53:20;;;;;;;11.43;4.10;;;5.00;99.90;;;;;;5075722;28;20024;-86
2021/12/14 00:55:48;;;;;;;10.63;3.97;;;4.90;99.90;;;;;;5075877;28;20024;-86
2021/12/14 00:58:16;;;;;;;10.03;3.87;;;4.90;99.90;;;;;;5075776;28;20125;-87
2021/12/14 01:00:47;;;;;;;8.87;3.77;;;5.00;99.90;;;;;;5071427;28;20111;-86
2021/12/14 01:03:13;;;;;;;11.48;4.28;;;4.90;99.90;;;;;;5055298;28;20409;-86
2021/12/14 01:05:43;;;;;;;9.77;4.00;;;5.00;99.90;;;;;;5055722;28;20032;-86
2021/12/14 01:08:12;;;;;;;9.73;3.90;;;5.00;99.90;;;;;;5055687;28;20063;-86
2021/12/14 01:10:49;;;;;;;12.33;4.20;;;5.00;99.90;;;;;;5056090;28;20121;-86
2021/12/14 01:13:15;;;;;;;12.13;3.47;;;4.90;99.90;;;;;;5055924;28;20036;-86
2021/12/14 01:16:47;;;;;;;12.13;4.23;;;4.90;99.90;;;;;;5059160;28;20143;-86
2021/12/14 01:21:14;;;;;;;12.60;4.10;;;4.90;99.90;;;;;;5074347;28;20029;-86
2021/12/14 01:23:40;;;;;;;11.90;3.77;;;4.90;99.90;;;;;;5055683;28;20028;-86
2021/12/14 01:26:16;;;;;;;8.83;2.83;;;4.90;99.90;;;;;;5071886;28;20024;-85
2021/12/14 01:28:43;;;;;;;15.77;3.77;;;4.90;99.90;;;;;;5095331;28;20434;-86
2021/12/14 01:31:23;;;;;;;9.43;3.13;;;4.90;99.90;;;;;;5077393;28;20020;-86
2021/12/14 01:33:53;;;;;;;11.70;4.07;;;4.90;99.90;;;;;;5076579;28;20040;-86
2021/12/14 01:36:28;;;;;;;8.13;3.20;;;4.90;99.90;;;;;;5056993;28;20057;-85
2021/12/14 01:41:41;;;;;;;12.67;3.93;;;4.90;99.90;;;;;;5075221;28;20123;-86
2021/12/14 01:44:08;;;;;;;11.60;3.70;;;4.90;99.90;;;;;;5067530;28;20026;-86
2021/12/14 01:46:42;;;;;;;15.23;3.23;;;4.90;99.90;;;;;;5073127;28;20025;-86
2021/12/14 01:49:14;;;;;;;11.83;3.80;;;4.90;99.90;;;;;;5077017;28;20035;-86
2021/12/14 01:51:43;;;;;;;14.27;3.65;;;4.90;99.90;;;;;;5077195;28;20028;-86
2021/12/14 01:54:11;;;;;;;15.37;3.13;;;4.90;99.90;;;;;;5095088;28;20106;-86
2021/12/14 01:56:37;;;;;;;16.07;3.33;;;4.90;99.90;;;;;;5095254;28;20494;-86
2021/12/14 01:59:14;;;;;;;14.10;2.93;;;4.80;99.90;;;;;;5095886;28;20020;-86
2021/12/14 02:01:53;;;;;;;21.87;3.67;;;4.90;99.90;;;;;;5077539;28;20491;-86
2021/12/14 02:04:21;;;;;;;12.10;3.40;;;4.90;99.90;;;;;;5078549;28;20020;-86
2021/12/14 02:06:57;;;;;;;15.33;3.70;;;4.90;99.90;;;;;;5060604;28;20024;-86
2021/12/14 02:09:31;;;;;;;21.10;3.40;;;4.90;99.90;;;;;;5060900;28;20028;-86
2021/12/14 02:12:01;;;;;;;13.47;2.67;;;4.90;99.90;;;;;;5060625;28;20135;-87
2021/12/14 02:14:28;;;;;;;21.63;3.43;;;4.90;99.90;;;;;;5078127;28;20092;-86
2021/12/14 02:16:58;;;;;;;20.90;3.03;;;4.90;99.90;;;;;;5080968;28;20032;-86
2021/12/14 02:19:25;;;;;;;28.00;3.93;;;4.80;99.90;;;;;;5080612;28;20035;-86
2021/12/14 02:21:54;;;;;;;23.93;2.63;;;4.80;99.90;;;;;;5080450;28;20453;-86
2021/12/14 02:24:22;;;;;;;51.77;3.83;;;4.80;99.90;;;;;;5080574;28;20377;-86
2021/12/14 02:26:54;;;;;;;10.93;3.30;;;4.80;99.90;;;;;;5081105;28;20024;-86
2021/12/14 02:29:27;;;;;;;;;;;4.80;99.90;;;;;;5081616;28;20130;-86
2021/12/14 02:32:00;;;;;;;31.27;3.00;;;4.80;99.90;;;;;;5077702;28;19955;-86
2021/12/14 02:34:26;;;;;;;24.33;3.03;;;4.80;99.90;;;;;;5060667;28;20036;-86
2021/12/14 02:36:52;;;;;;;18.77;3.53;;;4.80;99.90;;;;;;5060711;28;20025;-86
2021/12/14 02:39:46;;;;;;;15.73;3.20;;;4.80;99.90;;;;;;5071436;28;20028;-86
2021/12/14 02:42:15;;;;;;;32.27;3.63;;;4.70;99.90;;;;;;5077709;28;20032;-86
2021/12/14 02:44:45;;;;;;;47.43;3.63;;;4.80;99.90;;;;;;5060555;28;20031;-86
2021/12/14 02:47:13;;;;;;;29.03;3.10;;;4.70;99.90;;;;;;5093707;28;20425;-86
2021/12/14 02:49:43;;;;;;;14.87;3.17;;;4.70;99.90;;;;;;5080374;28;20024;-85
2021/12/14 02:52:33;;;;;;;20.10;3.63;;;4.70;99.90;;;;;;5080654;28;20039;-85
2021/12/14 02:55:06;;;;;;;23.53;3.80;;;4.70;99.90;;;;;;5080362;28;20054;-85
2021/12/14 02:57:37;;;;;;;25.87;3.50;;;4.70;99.90;;;;;;5079878;28;20028;-86
2021/12/14 03:00:13;;;;;;;37.97;3.40;;;4.60;99.90;;;;;;5077672;28;20059;-86
2021/12/14 03:02:39;;;;;;;19.43;3.73;;;4.70;99.90;;;;;;5061242;28;20614;-86
2021/12/14 03:05:15;;;;;;;44.03;4.27;;;4.70;99.90;;;;;;5062772;28;20036;-86
2021/12/14 03:07:46;;;;;;;39.43;3.40;;;4.70;99.90;;;;;;5088924;28;20020;-86
2021/12/14 03:12:45;;;;;;;24.30;3.23;;;4.70;99.90;;;;;;5080599;28;20086;-86
2021/12/14 03:15:28;;;;;;;20.87;3.37;;;4.70;99.90;;;;;;5075005;28;20037;-85
2021/12/14 03:18:04;;;;;;;62.90;4.27;;;4.70;99.90;;;;;;5060814;28;20403;-86
2021/12/14 03:20:52;;;;;;;21.80;3.43;;;4.70;99.90;;;;;;5073640;28;20068;-85
2021/12/14 03:23:41;;;;;;;26.63;3.30;;;4.60;99.90;;;;;;5077942;28;20036;-86
2021/12/14 03:26:27;;;;;;;47.10;4.40;;;4.60;99.90;;;;;;5080663;28;20507;-86
2021/12/14 03:28:56;;;;;;;35.93;3.67;;;4.60;99.90;;;;;;5082918;28;20032;-86
2021/12/14 03:31:36;;;;;;;109.27;5.60;;;4.70;99.90;;;;;;5080857;28;20028;-86
2021/12/14 03:34:21;;;;;;;100.00;5.53;;;4.50;99.90;;;;;;5080282;28;20059;-85
2021/12/14 03:36:51;;;;;;;52.17;4.30;;;4.50;99.90;;;;;;5080744;28;20036;-86
2021/12/14 03:39:26;;;;;;;62.47;4.63;;;4.40;99.90;;;;;;5079443;28;20032;-86
2021/12/14 03:42:05;;;;;;;58.07;4.57;;;4.50;99.90;;;;;;5079427;28;20026;-86
2021/12/14 03:44:46;;;;;;;48.97;4.07;;;4.40;99.90;;;;;;5080227;28;20107;-86
2021/12/14 03:47:27;;;;;;;53.30;3.25;;;4.40;99.90;;;;;;5099006;28;20027;-86
2021/12/14 03:50:16;;;;;;;70.07;4.60;;;4.40;99.90;;;;;;5098628;28;20105;-85
2021/12/14 03:52:44;;;;;;;117.30;5.50;;;4.40;99.90;;;;;;5064666;28;20134;-86
2021/12/14 03:55:19;;;;;;;51.83;4.80;;;4.40;99.90;;;;;;5080239;28;20081;-86
2021/12/14 03:57:45;;;;;;;51.57;3.67;;;4.50;99.90;;;;;;5064771;28;20047;-85
2021/12/14 04:00:18;;;;;;;38.20;4.07;;;4.40;99.90;;;;;;5079258;28;20083;-86
2021/12/14 04:02:44;;;;;;;101.10;4.82;;;4.40;99.90;;;;;;5078692;28;20115;-87
2021/12/14 04:05:12;;;;;;;52.53;4.17;;;4.40;99.90;;;;;;5078805;28;20078;-85
2021/12/14 04:07:46;;;;;;;21.87;2.90;;;4.40;99.90;;;;;;5079428;28;20035;-85
2021/12/14 04:10:22;;;;;;;13.47;3.57;;;4.40;99.90;;;;;;5078328;28;20037;-86
2021/12/14 04:12:56;;;;;;;22.67;3.70;;;4.40;99.90;;;;;;5075475;28;20039;-87
2021/12/14 04:15:26;;;;;;;17.67;3.37;;;4.50;99.90;;;;;;5059442;28;20094;-86
2021/12/14 04:17:53;;;;;;;55.60;4.23;;;4.50;99.90;;;;;;5059482;28;20055;-86
2021/12/14 04:20:25;;;;;;;61.47;5.10;;;4.50;99.90;;;;;;5061249;28;20032;-86
2021/12/14 04:22:56;;;;;;;78.05;5.18;;;4.40;99.90;;;;;;5080644;28;20033;-86
2021/12/14 04:25:32;;;;;;;54.77;4.67;;;4.40;99.90;;;;;;5086676;28;20522;-85
2021/12/14 04:28:09;;;;;;;79.97;4.53;;;4.40;99.90;;;;;;5079860;28;20025;-86
2021/12/14 04:30:39;;;;;;;81.90;5.20;;;4.40;99.90;;;;;;5096993;28;20364;-86
2021/12/14 04:36:03;;;;;;;14.90;3.67;;;4.40;99.90;;;;;;5097933;28;20127;-86
2021/12/14 04:38:34;;;;;;;61.90;4.00;;;4.40;99.90;;;;;;5078719;28;20064;-86
2021/12/14 04:52:34;;;;;;;71.50;4.20;;;4.20;99.90;;;;;;5098706;28;20039;-86
2021/12/14 04:55:19;;;;;;;53.03;3.67;;;4.10;99.90;;;;;;5081360;28;20039;-85
2021/12/14 04:57:51;;;;;;;31.10;3.17;;;4.10;99.90;;;;;;5089018;28;20028;-86
2021/12/14 05:00:43;;;;;;;80.10;4.83;;;4.10;99.90;;;;;;5078340;28;20032;-85
2021/12/14 05:03:25;;;;;;;88.00;4.13;;;4.10;99.90;;;;;;5067984;28;20043;-86
2021/12/14 05:06:10;;;;;;;94.17;4.80;;;4.10;99.90;;;;;;5102234;28;20020;-85
2021/12/14 05:11:20;;;;;;;58.80;3.90;;;4.00;99.90;;;;;;5082268;28;20025;-85
2021/12/14 05:14:05;;;;;;;75.90;4.53;;;4.00;99.90;;;;;;5095916;28;20050;-86
2021/12/14 05:22:33;;;;;;;62.73;3.50;;;3.90;99.90;;;;;;5058462;28;20045;-86
2021/12/14 05:25:07;;;;;;;100.27;4.60;;;3.90;99.90;;;;;;5058325;28;20068;-87
2021/12/14 05:27:38;;;;;;;62.23;3.97;;;3.90;99.90;;;;;;5059031;28;20021;-86
2021/12/14 05:33:38;;;;;;;85.83;3.90;;;3.90;99.90;;;;;;5056207;28;20036;-88
2021/12/14 05:36:12;;;;;;;53.97;3.70;;;3.80;99.90;;;;;;5024983;28;20404;-86
2021/12/14 05:44:24;;;;;;;7.20;2.17;;;3.90;99.90;;;;;;5060448;28;20048;-85
2021/12/14 05:46:57;;;;;;;6.67;2.53;;;3.90;99.90;;;;;;5044212;28;20063;-86
2021/12/14 05:49:41;;;;;;;6.70;1.70;;;3.80;99.90;;;;;;5042398;28;20021;-86
2021/12/14 05:52:10;;;;;;;8.33;2.63;;;3.80;99.90;;;;;;5033028;28;20089;-86
2021/12/14 05:54:38;;;;;;;7.10;2.70;;;4.00;99.90;;;;;;5032758;28;20025;-86
2021/12/14 05:57:07;;;;;;;21.07;2.80;;;3.90;99.90;;;;;;5053649;28;20032;-85
2021/12/14 05:59:34;;;;;;;7.00;2.23;;;3.90;99.90;;;;;;5029378;28;20078;-86
2021/12/14 06:02:03;;;;;;;32.40;3.10;;;4.00;99.90;;;;;;5038276;28;20131;-87
2021/12/14 06:04:36;;;;;;;9.33;2.47;;;3.90;99.90;;;;;;5030651;28;20063;-86
2021/12/14 06:07:08;;;;;;;8.43;2.07;;;3.90;99.90;;;;;;5029978;28;20060;-86
2021/12/14 06:09:37;;;;;;;5.90;1.88;;;3.90;99.90;;;;;;5019453;28;20056;-86
2021/12/14 06:12:10;;;;;;;9.67;2.53;;;3.90;99.90;;;;;;5040481;28;20032;-86
2021/12/14 06:14:42;;;;;;;16.03;2.40;;;3.90;99.90;;;;;;5038405;28;20095;-85
2021/12/14 06:17:10;;;;;;;5.47;2.40;;;3.90;99.90;;;;;;5025356;28;20022;-85
2021/12/14 06:19:51;;;;;;;7.50;2.60;;;4.00;99.90;;;;;;5021206;28;20034;-85
2021/12/14 06:22:19;;;;;;;6.87;2.83;;;4.00;99.90;;;;;;5020643;28;20552;-86
2021/12/14 06:24:53;;;;;;;42.13;3.40;;;4.00;99.90;;;;;;5029211;28;20492;-86
2021/12/14 06:27:27;;;;;;;7.70;2.50;;;3.90;99.90;;;;;;5039641;28;20469;-86
2021/12/14 06:30:15;;;;;;;26.37;3.30;;;3.80;99.90;;;;;;5039662;28;20029;-86
2021/12/14 06:32:46;;;;;;;10.50;2.67;;;3.80;99.90;;;;;;5050043;28;20056;-85
2021/12/14 06:35:22;;;;;;;7.80;2.47;;;3.80;99.90;;;;;;5037203;28;20021;-86
2021/12/14 06:40:56;;;;;;;6.60;2.17;;;3.80;99.90;;;;;;5056120;28;20037;-86
2021/12/14 06:43:54;;;;;;;6.03;2.30;;;3.80;99.90;;;;;;5037047;28;20032;-85
2021/12/14 06:46:43;;;;;;;7.10;2.37;;;3.80;99.90;;;;;;5024462;28;20063;-85
2021/12/14 06:49:14;;;;;;;8.53;3.07;;;3.70;99.90;;;;;;5038328;28;20508;-85
2021/12/14 06:51:47;;;;;;;9.60;3.13;;;3.70;99.90;;;;;;5036141;28;20024;-85
2021/12/14 06:54:20;;;;;;;12.57;2.70;;;3.70;99.90;;;;;;5054868;28;20021;-86
2021/12/14 06:56:53;;;;;;;8.50;3.17;;;3.70;99.90;;;;;;5036752;28;20558;-85
2021/12/14 06:59:21;;;;;;;6.93;2.50;;;3.70;99.90;;;;;;5037839;28;20025;-85
2021/12/14 07:01:51;;;;;;;8.00;2.40;;;3.70;99.90;;;;;;5037629;28;20473;-85
2021/12/14 07:04:22;;;;;;;8.27;2.57;;;3.60;99.90;;;;;;5037207;28;20388;-85
2021/12/14 07:06:58;;;;;;;31.20;3.87;;;3.70;99.90;;;;;;5037154;28;20025;-85
2021/12/14 07:09:25;;;;;;;7.50;2.43;;;3.70;99.90;;;;;;5028408;28;20160;-86
2021/12/14 07:11:59;;;;;;;38.13;3.27;;;3.70;99.90;;;;;;5035982;28;20026;-85
2021/12/14 07:14:28;;;;;;;6.30;2.60;;;3.70;99.90;;;;;;5051910;28;20427;-85
2021/12/14 07:17:08;;;;;;;7.50;2.37;;;3.70;99.90;;;;;;5040503;28;20029;-86
2021/12/14 07:19:48;;;;;;;6.50;2.27;;;3.60;99.90;;;;;;5037908;28;20036;-84
2021/12/14 07:22:31;;;;;;;11.03;2.23;;;3.60;99.90;;;;;;5033062;28;20032;-86
2021/12/14 07:25:28;;;;;;;11.40;3.30;;;3.60;99.90;;;;;;5035209;28;20385;-86
2021/12/14 07:27:57;;;;;;;6.23;2.27;;;3.60;99.90;;;;;;5005350;28;20044;-86
2021/12/14 07:30:34;;;;;;;8.90;3.50;;;3.50;99.90;;;;;;5028617;28;20039;-84
2021/12/14 07:33:10;;;;;;;28.70;4.13;;;3.50;99.90;;;;;;5048254;28;20044;-85
2021/12/14 07:35:48;;;;;;;9.20;3.43;;;3.50;99.90;;;;;;5034555;28;20094;-85
2021/12/14 07:38:28;;;;;;;27.70;3.73;;;3.50;99.90;;;;;;5033142;28;20021;-85
2021/12/14 07:41:15;;;;;;;173.67;7.40;;;3.50;99.90;;;;;;5037080;28;20064;-85
2021/12/14 07:43:46;;;;;;;11.23;3.10;;;3.50;99.90;;;;;;5051193;28;20049;-85
2021/12/14 07:46:19;;;;;;;64.57;3.80;;;3.50;99.90;;;;;;5026866;28;20028;-85
2021/12/14 07:48:52;;;;;;;90.27;4.73;;;3.50;99.90;;;;;;5052842;28;20025;-85
2021/12/14 07:51:20;;;;;;;32.60;3.40;;;3.40;99.90;;;;;;5052017;28;20081;-85
2021/12/14 07:53:49;;;;;;;71.13;4.60;;;3.40;99.90;;;;;;5031704;28;20074;-86
2021/12/14 08:04:04;;;;;;;93.73;4.83;;;3.50;99.90;;;;;;5069303;28;20491;-85
2021/12/14 08:06:49;;;;;;;59.60;4.23;;;3.50;99.90;;;;;;5047756;28;20379;-85
2021/12/14 08:09:31;;;;;;;86.13;4.57;;;3.40;99.90;;;;;;5051958;28;20021;-87
2021/12/14 08:11:56;;;;;;;102.20;4.63;;;3.40;99.90;;;;;;5051890;28;20025;-86
2021/12/14 08:14:27;;;;;;;55.80;3.83;;;3.40;99.90;;;;;;5034471;28;20040;-87
2021/12/14 08:17:06;;;;;;;62.57;4.00;;;3.40;99.90;;;;;;5042779;28;20025;-86
2021/12/14 08:19:41;;;;;;;92.03;5.07;;;3.50;99.90;;;;;;5046346;28;20400;-86
2021/12/14 08:22:14;;;;;;;57.37;4.17;;;3.50;99.90;;;;;;5052248;28;20025;-86
2021/12/14 08:24:48;;;;;;;23.83;3.37;;;3.50;99.90;;;;;;5044174;28;20033;-86
2021/12/14 08:27:19;;;;;;;78.10;4.87;;;3.50;99.90;;;;;;5025762;28;20025;-86
2021/12/14 08:29:59;;;;;;;68.60;4.53;;;3.50;99.90;;;;;;5033539;28;20041;-86
2021/12/14 08:32:31;;;;;;;29.97;3.70;;;3.40;99.90;;;;;;5050296;28;20819;-86
2021/12/14 08:38:37;;;;;;;;;;;;;;;;;;;;;
2021/12/14 08:48:25;;;;;;;18.97;3.50;;;3.70;99.90;;;;;;5024940;28;20036;-86
2021/12/14 08:51:15;;;;;;;9.87;3.20;;;3.90;99.90;;;;;;5048973;28;20117;-85
2021/12/14 08:54:07;;;;;;;7.83;3.30;;;3.90;99.90;;;;;;5027793;28;20039;-85
2021/12/14 08:57:08;;;;;;;3.53;1.75;;;4.00;99.90;;;;;;5032278;28;20159;-86
2021/12/14 08:59:35;;;;;;;8.00;3.17;;;4.10;99.90;;;;;;5047434;28;20124;-86
2021/12/14 09:02:08;;;;;;;7.40;2.90;;;4.20;99.90;;;;;;5048565;28;20025;-86
2021/12/14 09:04:39;;;;;;;9.43;4.03;;;4.30;99.90;;;;;;5032423;28;20036;-87
2021/12/14 09:08:02;;;;;;;21.43;3.70;;;4.30;99.90;;;;;;5030396;28;20116;-86
2021/12/14 09:11:04;;;;;;;;;;;;;;;;;;;;;
2021/12/14 09:14:13;;;;;;;5.28;2.30;;;4.30;99.90;;;;;;5042127;28;20399;-86
2021/12/14 09:17:22;;;;;;;8.37;3.23;;;4.30;99.90;;;;;;5047838;28;20677;-87
2021/12/14 09:21:06;;;;;;;7.60;2.93;;;4.30;99.90;;;;;;5029456;28;20029;-87
2021/12/14 09:37:38;;;;;;;6.13;2.50;;;4.90;99.90;;;;;;5044272;28;20032;-86
2021/12/14 10:06:02;;;;;;;6.80;3.20;;;5.80;99.90;;;;;;5057961;28;20048;-88
2021/12/14 10:30:15;;;;;;;7.10;3.10;;;5.60;99.90;;;;;;5032569;28;20045;-87
2021/12/14 10:33:23;;;;;;;8.00;3.47;;;5.60;99.90;;;;;;5011113;28;20440;-87
2021/12/14 10:36:38;;;;;;;6.10;3.00;;;5.70;99.90;;;;;;4973223;28;20042;-86
2021/12/14 10:46:39;;;;;;;8.33;3.67;;;5.80;99.90;;;;;;4973052;28;20119;-87
2021/12/14 10:57:46;;;;;;;10.00;4.03;;;5.50;99.90;;;;;;4827036;29;20042;-86
2021/12/14 11:03:59;;;;;;;7.65;3.13;;;5.80;99.90;;;;;;4964852;28;20096;-86
2021/12/14 11:11:29;;;;;;;;;;;;;;;;;;;;;
2021/12/14 11:20:36;;;;;;;8.97;4.17;;;6.00;99.90;;;;;;5053992;28;20035;-86
2021/12/14 11:23:46;;;;;;;8.45;4.05;;;6.00;99.90;;;;;;5049866;28;20048;-87
2021/12/14 11:31:01;;;;;;;;;;;;;;;;;;;;;
2021/12/14 11:41:27;;;;;;;;;;;;;;;;;;;;;
2021/12/14 11:54:49;;;;;;;9.47;4.27;;;6.40;99.90;;;;;;4991065;28;20840;-88
2021/12/14 12:05:31;;;;;;;8.03;3.70;;;6.50;99.90;;;;;;5056999;28;20526;-88
2021/12/14 12:15:15;;;;;;;7.87;3.30;;;6.80;99.90;;;;;;4997182;28;20129;-88
2021/12/14 12:17:52;;;;;;;8.00;3.38;;;7.00;99.90;;;;;;5003454;28;20029;-89
2021/12/14 12:20:41;;;;;;;5.47;2.93;;;7.10;99.90;;;;;;5054925;28;20025;-89
2021/12/14 12:40:50;;;;;;;7.70;3.53;;;7.10;99.90;;;;;;4996212;28;20600;-88
2021/12/14 12:44:09;;;;;;;;;;;;;;;;;;;;;
2021/12/14 12:47:12;;;;;;;10.03;4.00;;;7.10;99.90;;;;;;5003923;28;21212;-89
2021/12/14 12:50:02;;;;;;;7.23;3.93;;;7.10;99.90;;;;;;5003711;28;20045;-88
2021/12/14 12:56:17;;;;;;;8.55;3.65;;;7.00;99.90;;;;;;5001557;28;20109;-88
2021/12/14 12:58:49;;;;;;;8.23;3.83;;;7.10;99.90;;;;;;4991014;28;20510;-88
2021/12/14 13:01:25;;;;;;;8.20;3.53;;;7.10;99.90;;;;;;4991302;28;20685;-88
2021/12/14 13:04:03;;;;;;;6.40;3.60;;;7.20;99.90;;;;;;4997550;28;20042;-88
2021/12/14 13:06:43;;;;;;;8.07;4.03;;;7.20;99.90;;;;;;5011784;28;20045;-90
2021/12/14 13:09:14;;;;;;;10.93;3.97;;;7.10;99.90;;;;;;5017459;28;20472;-89
2021/12/14 13:11:40;;;;;;;8.37;4.37;;;7.20;99.90;;;;;;5020890;28;20018;-90
2021/12/14 13:14:35;;;;;;;11.37;5.07;;;7.20;99.90;;;;;;5075126;28;20384;-89
2021/12/14 13:20:12;;;;;;;8.23;3.97;;;7.20;99.90;;;;;;5041271;28;20048;-89
2021/12/14 13:23:02;;;;;;;9.23;3.93;;;7.20;99.90;;;;;;5049230;28;20115;-89
2021/12/14 13:41:34;;;;;;;8.03;3.93;;;7.10;99.90;;;;;;5073223;23;20041;-89
2021/12/14 13:52:15;;;;;;;9.57;4.23;;;6.80;99.90;;;;;;5781824;22;20064;-89
2021/12/14 14:10:07;;;;;;;;;;;;;;;;;;;;;
2021/12/14 14:13:49;;;;;;;;;;;;;;;;;;;;;
2021/12/14 14:17:05;;;;;;;7.90;4.07;;;6.50;99.90;;;;;;4995023;28;20149;-88
2021/12/14 14:23:50;;;;;;;9.87;4.47;;;6.60;99.90;;;;;;4942508;29;20503;-89
2021/12/14 14:29:45;;;;;;;8.27;4.03;;;6.40;99.90;;;;;;5132609;23;20061;-89
2021/12/14 14:32:41;;;;;;;8.23;3.83;;;6.50;99.90;;;;;;5079770;28;20028;-90
2021/12/14 14:39:32;;;;;;;;;;;;;;;;;;;;;
2021/12/14 14:46:14;;;;;;;;;;;;;;;;;;;;;
2021/12/14 14:52:47;;;;;;;8.33;3.37;;;6.30;99.90;;;;;;5019667;28;20045;-87
2021/12/14 14:55:31;;;;;;;;;;;6.30;99.90;;;;;;5025600;28;20108;-88
2021/12/14 14:58:21;;;;;;;8.47;3.07;;;6.20;99.90;;;;;;5033901;28;19909;-88
2021/12/14 15:01:22;;;;;;;8.67;4.03;;;6.20;99.90;;;;;;5037660;28;20033;-87
2021/12/14 15:04:15;;;;;;;9.77;3.97;;;6.20;99.90;;;;;;5038345;28;20390;-88
2021/12/14 15:07:25;;;;;;;;;;;;;;;;;;;;;
2021/12/14 15:10:12;;;;;;;10.63;4.00;;;6.10;99.90;;;;;;5030981;28;20025;-87
2021/12/14 15:17:10;;;;;;;11.30;4.15;;;6.10;99.90;;;;;;4980043;28;20060;-88
2021/12/14 15:20:33;;;;;;;12.13;5.57;;;6.20;99.90;;;;;;5021419;28;20072;-87
2021/12/14 15:27:24;;;;;;;10.23;4.33;;;6.10;99.90;;;;;;4971044;28;20066;-88
2021/12/14 15:30:07;;;;;;;12.70;5.10;;;6.10;99.90;;;;;;4957009;28;20043;-88
2021/12/14 15:33:43;;;;;;;;;;;;;;;;;;;;;
2021/12/14 16:02:04;;;;;;;9.77;4.23;;;5.70;99.90;;;;;;5030286;28;20144;-84
2021/12/14 16:04:43;;;;;;;10.83;4.53;;;5.70;99.90;;;;;;5022615;28;20313;-85
2021/12/14 16:07:23;;;;;;;9.10;3.97;;;5.70;99.90;;;;;;5022761;28;20056;-85
2021/12/14 16:10:22;;;;;;;10.93;4.40;;;5.70;99.90;;;;;;5007958;28;20030;-85
2021/12/14 16:15:48;;;;;;;10.23;4.67;;;5.70;99.90;;;;;;5019585;28;20448;-87
2021/12/14 16:18:16;;;;;;;12.25;4.88;;;5.80;99.90;;;;;;5012895;28;20381;-86
2021/12/14 16:21:07;;;;;;;10.23;4.23;;;5.80;99.90;;;;;;5011106;28;20493;-86
2021/12/14 16:23:40;;;;;;;11.77;4.97;;;5.80;99.90;;;;;;5010200;28;20025;-86
2021/12/14 16:26:15;;;;;;;7.77;3.40;;;5.70;99.90;;;;;;5032290;28;20025;-86
2021/12/14 16:29:03;;;;;;;;;;;;;;;;;;;;;
2021/12/14 16:31:56;;;;;;;10.60;4.57;;;5.70;99.90;;;;;;5033448;28;20037;-86
2021/12/14 16:34:29;;;;;;;10.90;4.38;;;5.70;99.90;;;;;;5029570;28;20493;-85
2021/12/14 16:37:22;;;;;;;10.40;4.30;;;5.70;99.90;;;;;;5031361;28;20108;-86
2021/12/14 16:39:51;;;;;;;9.17;3.57;;;5.60;99.90;;;;;;5008212;28;20130;-86
2021/12/14 16:42:25;;;;;;;9.37;3.73;;;5.70;99.90;;;;;;5011736;28;20029;-86
2021/12/14 16:45:13;;;;;;;7.80;3.83;;;5.60;99.90;;;;;;5027164;28;20112;-85
2021/12/14 16:48:05;;;;;;;9.77;4.13;;;5.60;99.90;;;;;;4993200;28;20563;-86
2021/12/14 16:50:35;;;;;;;6.80;3.35;;;5.60;99.90;;;;;;5009317;28;20037;-86
2021/12/14 16:53:08;;;;;;;8.27;4.07;;;5.60;99.90;;;;;;5026327;28;20065;-87
2021/12/14 16:55:39;;;;;;;;;;;5.60;99.90;;;;;;5022356;28;20057;-86
2021/12/14 16:58:19;;;;;;;9.53;3.80;;;5.60;99.90;;;;;;5011280;28;19917;-86
2021/12/14 17:01:00;;;;;;;9.07;4.33;;;5.60;99.90;;;;;;5022396;28;20052;-86
2021/12/14 17:03:33;;;;;;;10.50;4.20;;;5.60;99.90;;;;;;5026453;28;20422;-85
2021/12/14 17:06:09;;;;;;;8.80;3.50;;;5.60;99.90;;;;;;5031947;28;20201;-86
2021/12/14 17:08:45;;;;;;;7.90;3.80;;;5.60;99.90;;;;;;5028961;28;20417;-86
2021/12/14 17:11:40;;;;;;;8.60;4.43;;;5.60;99.90;;;;;;5010593;28;20022;-86
2021/12/14 17:14:18;;;;;;;9.77;3.97;;;5.60;99.90;;;;;;5001775;28;20037;-85
2021/12/14 17:16:59;;;;;;;8.63;4.03;;;5.60;99.90;;;;;;5011757;28;20029;-87
2021/12/14 17:19:26;;;;;;;9.63;3.43;;;5.50;99.90;;;;;;5030753;28;20032;-85
2021/12/14 17:22:16;;;;;;;8.63;4.03;;;5.60;99.90;;;;;;5005607;28;20037;-85
2021/12/14 17:25:03;;;;;;;10.40;4.80;;;5.60;99.90;;;;;;5029905;28;20032;-85
2021/12/14 17:27:41;;;;;;;8.90;4.50;;;5.50;99.90;;;;;;5015256;28;20040;-85
2021/12/14 17:30:18;;;;;;;9.13;3.93;;;5.50;99.90;;;;;;5024176;28;20032;-85
2021/12/14 17:32:45;;;;;;;9.33;4.73;;;5.50;99.90;;;;;;5026306;28;20109;-86
2021/12/14 17:35:45;;;;;;;;;;;;;;;;;;;;;
2021/12/14 17:38:50;;;;;;;8.40;4.20;;;5.60;99.90;;;;;;5031597;28;20031;-85
2021/12/14 17:41:40;;;;;;;8.43;4.27;;;5.50;99.90;;;;;;5016285;28;20124;-85
2021/12/14 17:44:21;;;;;;;8.30;4.10;;;5.50;99.90;;;;;;5030279;28;20021;-85
2021/12/14 17:47:17;;;;;;;;;;;;;;;;;;;;;
2021/12/14 17:49:54;;;;;;;10.80;4.80;;;5.50;99.90;;;;;;5024633;28;20387;-85
2021/12/14 17:52:40;;;;;;;10.40;4.47;;;5.50;99.90;;;;;;5034340;28;20105;-86
2021/12/14 17:55:10;;;;;;;9.20;4.77;;;5.50;99.90;;;;;;5017654;28;20032;-87
2021/12/14 17:57:44;;;;;;;11.33;5.07;;;5.50;99.90;;;;;;5034743;28;20045;-87
2021/12/14 18:00:22;;;;;;;10.17;4.40;;;5.50;99.90;;;;;;5031807;28;20022;-89
2021/12/14 18:03:10;;;;;;;9.93;4.50;;;5.50;99.90;;;;;;5032925;28;20047;-88
2021/12/14 18:05:40;;;;;;;9.00;4.43;;;5.50;99.90;;;;;;5017171;28;20463;-90
2021/12/14 18:08:15;;;;;;;9.83;4.70;;;5.40;99.90;;;;;;5014765;28;20537;-88
2021/12/14 18:10:54;;;;;;;10.97;5.33;;;5.40;99.90;;;;;;5033178;28;20029;-88
2021/12/14 18:13:46;;;;;;;10.73;4.70;;;5.40;99.90;;;;;;5016351;28;20033;-87
2021/12/14 18:20:25;;;;;;;8.83;3.97;;;5.40;99.90;;;;;;5029059;28;20117;-89
2021/12/14 18:23:42;;;;;;;12.07;4.85;;;5.50;99.90;;;;;;5030122;28;20026;-89
2021/12/14 18:26:13;;;;;;;9.00;4.33;;;5.60;99.90;;;;;;5028523;28;20029;-89
2021/12/14 18:28:51;;;;;;;9.70;4.70;;;5.50;99.90;;;;;;5030859;28;20034;-88
2021/12/14 18:31:21;;;;;;;12.47;5.47;;;5.50;99.90;;;;;;5031006;28;20044;-88
2021/12/14 18:34:07;;;;;;;10.23;4.97;;;5.50;99.90;;;;;;5031008;28;20056;-88
2021/12/14 18:36:37;;;;;;;12.40;4.97;;;5.40;99.90;;;;;;5025947;28;20033;-89
2021/12/14 18:39:10;;;;;;;14.50;5.30;;;5.50;99.90;;;;;;5020172;28;20021;-87
2021/12/14 18:41:36;;;;;;;11.47;5.10;;;5.50;99.90;;;;;;5022225;28;20018;-87
2021/12/14 18:44:15;;;;;;;10.03;5.07;;;5.50;99.90;;;;;;5011480;28;20025;-87
2021/12/14 18:47:11;;;;;;;12.80;5.30;;;5.50;99.90;;;;;;5013105;28;20021;-89
2021/12/14 18:49:41;;;;;;;11.70;5.30;;;5.50;99.90;;;;;;5010799;28;20018;-87
2021/12/14 18:52:40;;;;;;;12.70;5.50;;;5.50;99.90;;;;;;5032620;28;20021;-88
2021/12/14 18:55:25;;;;;;;10.73;4.73;;;5.50;99.90;;;;;;5022306;28;20478;-89
2021/12/14 18:58:13;;;;;;;14.33;6.37;;;5.40;99.90;;;;;;5016654;28;20022;-89
2021/12/14 19:00:50;;;;;;;11.63;5.33;;;5.40;99.90;;;;;;5023942;28;20046;-88
2021/12/14 19:03:21;;;;;;;11.50;5.57;;;5.50;99.90;;;;;;5013719;28;20022;-86
2021/12/14 19:05:53;;;;;;;12.45;5.57;;;5.40;99.90;;;;;;5016977;28;20055;-88
2021/12/14 19:08:24;;;;;;;13.40;5.82;;;5.50;99.90;;;;;;5018840;28;20030;-88
2021/12/14 19:11:04;;;;;;;;;;;5.50;99.90;;;;;;5025690;28;20037;-88
2021/12/14 19:13:35;;;;;;;12.60;5.43;;;5.40;99.90;;;;;;5016352;28;19916;-89
2021/12/14 19:16:22;;;;;;;11.90;4.88;;;5.40;99.90;;;;;;5017939;28;20445;-89
2021/12/14 19:18:56;;;;;;;10.23;5.20;;;5.40;99.90;;;;;;5017963;28;20060;-87
2021/12/14 19:21:28;;;;;;;14.63;5.37;;;5.50;99.90;;;;;;5031793;28;20025;-89
2021/12/14 19:24:09;;;;;;;12.85;5.93;;;5.50;99.90;;;;;;5033137;28;20076;-88
2021/12/14 19:27:02;;;;;;;11.63;5.80;;;5.50;99.90;;;;;;5020836;28;20026;-89